sensor_id;sensor_type;location;lat;lon;timestamp;temperature;humidity
6210;DHT22;3138;52.550;13.148;2023-07-08T00:02:13;14.40;99.90
6210;DHT22;3138;52.550;13.148;2023-07-08T00:04:40;14.40;99.90
6210;DHT22;3138;52.550;13.148;2023-07-08T00:07:11;14.30;99.90
6210;DHT22;3138;52.550;13.148;2023-07-08T00:09:39;14.20;99.90
6210;DHT22;3138;52.550;13.148;2023-07-08T00:12:10;14.10;99.90
6210;DHT22;3138;52.550;13.148;2023-07-08T00:14:37;14.10;99.90
6210;DHT22;3138;52.550;13.148;2023-07-08T00:17:10;14.00;99.90
6210;DHT22;3138;52.550;13.148;2023-07-08T00:19:38;14.00;99.90
6210;DHT22;3138;52.550;13.148;2023-07-08T00:22:13;14.00;99.90
6210;DHT22;3138;52.550;13.148;2023-07-08T00:24:41;13.90;99.90
6210;DHT22;3138;52.550;13.148;2023-07-08T00:27:09;13.80;99.90
6210;DHT22;3138;52.550;13.148;2023-07-08T00:29:37;13.80;99.90
6210;DHT22;3138;52.550;13.148;2023-07-08T00:32:09;13.80;99.90
6210;DHT22;3138;52.550;13.148;2023-07-08T00:34:39;13.90;99.90
6210;DHT22;3138;52.550;13.148;2023-07-08T00:37:10;13.90;99.90
6210;DHT22;3138;52.550;13.148;2023-07-08T00:39:37;13.80;99.90
6210;DHT22;3138;52.550;13.148;2023-07-08T00:42:14;13.70;99.90
6210;DHT22;3138;52.550;13.148;2023-07-08T00:44:42;13.50;99.90
6210;DHT22;3138;52.550;13.148;2023-07-08T00:47:11;13.50;99.90
6210;DHT22;3138;52.550;13.148;2023-07-08T00:49:45;13.50;99.90
6210;DHT22;3138;52.550;13.148;2023-07-08T00:52:24;13.50;99.90
6210;DHT22;3138;52.550;13.148;2023-07-08T00:54:53;13.40;99.90
6210;DHT22;3138;52.550;13.148;2023-07-08T00:57:24;13.40;99.90
6210;DHT22;3138;52.550;13.148;2023-07-08T00:59:54;13.40;99.90
6210;DHT22;3138;52.550;13.148;2023-07-08T01:02:25;13.40;99.90
6210;DHT22;3138;52.550;13.148;2023-07-08T01:04:57;13.40;99.90
6210;DHT22;3138;52.550;13.148;2023-07-08T01:07:26;13.40;99.90
6210;DHT22;3138;52.550;13.148;2023-07-08T01:09:57;13.30;99.90
6210;DHT22;3138;52.550;13.148;2023-07-08T01:12:27;13.30;99.90
6210;DHT22;3138;52.550;13.148;2023-07-08T01:14:56;13.20;99.90
6210;DHT22;3138;52.550;13.148;2023-07-08T01:17:23;13.20;99.90
6210;DHT22;3138;52.550;13.148;2023-07-08T01:19:50;13.20;99.90
6210;DHT22;3138;52.550;13.148;2023-07-08T01:22:22;13.20;99.90
6210;DHT22;3138;52.550;13.148;2023-07-08T01:24:49;13.10;99.90
6210;DHT22;3138;52.550;13.148;2023-07-08T01:27:18;13.10;99.90
6210;DHT22;3138;52.550;13.148;2023-07-08T01:29:49;13.00;99.90
6210;DHT22;3138;52.550;13.148;2023-07-08T01:32:16;13.10;99.90
6210;DHT22;3138;52.550;13.148;2023-07-08T01:34:45;13.20;99.90
6210;DHT22;3138;52.550;13.148;2023-07-08T01:37:29;13.20;99.90
6210;DHT22;3138;52.550;13.148;2023-07-08T01:39:57;13.10;99.90
6210;DHT22;3138;52.550;13.148;2023-07-08T01:42:24;13.10;99.90
6210;DHT22;3138;52.550;13.148;2023-07-08T01:44:51;13.00;99.90
6210;DHT22;3138;52.550;13.148;2023-07-08T01:47:20;13.00;99.90
6210;DHT22;3138;52.550;13.148;2023-07-08T01:49:48;12.90;99.90
6210;DHT22;3138;52.550;13.148;2023-07-08T01:52:16;12.90;99.90
6210;DHT22;3138;52.550;13.148;2023-07-08T01:54:45;12.80;99.90
6210;DHT22;3138;52.550;13.148;2023-07-08T01:57:20;12.70;99.90
6210;DHT22;3138;52.550;13.148;2023-07-08T01:59:47;12.70;99.90
6210;DHT22;3138;52.550;13.148;2023-07-08T02:02:14;12.70;99.90
6210;DHT22;3138;52.550;13.148;2023-07-08T02:04:41;12.70;99.90
6210;DHT22;3138;52.550;13.148;2023-07-08T02:07:08;12.70;99.90
6210;DHT22;3138;52.550;13.148;2023-07-08T02:09:35;12.70;99.90
6210;DHT22;3138;52.550;13.148;2023-07-08T02:12:03;12.60;99.90
6210;DHT22;3138;52.550;13.148;2023-07-08T02:14:30;12.60;99.90
6210;DHT22;3138;52.550;13.148;2023-07-08T02:16:57;12.50;99.90
6210;DHT22;3138;52.550;13.148;2023-07-08T02:19:29;12.40;99.90
6210;DHT22;3138;52.550;13.148;2023-07-08T02:21:55;12.40;99.90
6210;DHT22;3138;52.550;13.148;2023-07-08T02:24:23;12.40;99.90
6210;DHT22;3138;52.550;13.148;2023-07-08T02:26:50;12.40;99.90
6210;DHT22;3138;52.550;13.148;2023-07-08T02:29:18;12.50;99.90
6210;DHT22;3138;52.550;13.148;2023-07-08T02:31:45;12.50;99.90
6210;DHT22;3138;52.550;13.148;2023-07-08T02:34:12;12.50;99.90
6210;DHT22;3138;52.550;13.148;2023-07-08T02:36:38;12.60;99.90
6210;DHT22;3138;52.550;13.148;2023-07-08T02:39:09;12.60;99.90
6210;DHT22;3138;52.550;13.148;2023-07-08T02:41:36;12.50;99.90
6210;DHT22;3138;52.550;13.148;2023-07-08T02:44:03;12.50;99.90
6210;DHT22;3138;52.550;13.148;2023-07-08T02:46:31;12.40;99.90
6210;DHT22;3138;52.550;13.148;2023-07-08T02:48:58;12.40;99.90
6210;DHT22;3138;52.550;13.148;2023-07-08T02:51:28;12.20;99.90
6210;DHT22;3138;52.550;13.148;2023-07-08T02:53:54;12.20;99.90
6210;DHT22;3138;52.550;13.148;2023-07-08T02:56:21;12.20;99.90
6210;DHT22;3138;52.550;13.148;2023-07-08T02:58:48;12.20;99.90
6210;DHT22;3138;52.550;13.148;2023-07-08T03:01:15;12.20;99.90
6210;DHT22;3138;52.550;13.148;2023-07-08T03:03:44;12.10;99.90
6210;DHT22;3138;52.550;13.148;2023-07-08T03:06:12;12.30;99.90
6210;DHT22;3138;52.550;13.148;2023-07-08T03:08:38;12.30;99.90
6210;DHT22;3138;52.550;13.148;2023-07-08T03:11:07;12.30;99.90
6210;DHT22;3138;52.550;13.148;2023-07-08T03:13:34;12.30;99.90
6210;DHT22;3138;52.550;13.148;2023-07-08T03:16:03;12.30;99.90
6210;DHT22;3138;52.550;13.148;2023-07-08T03:18:38;12.30;99.90
6210;DHT22;3138;52.550;13.148;2023-07-08T03:21:14;12.20;99.90
6210;DHT22;3138;52.550;13.148;2023-07-08T03:23:41;12.30;99.90
6210;DHT22;3138;52.550;13.148;2023-07-08T03:26:13;12.20;99.90
6210;DHT22;3138;52.550;13.148;2023-07-08T03:28:40;12.30;99.90
6210;DHT22;3138;52.550;13.148;2023-07-08T03:31:08;12.30;99.90
6210;DHT22;3138;52.550;13.148;2023-07-08T03:33:38;12.40;99.90
6210;DHT22;3138;52.550;13.148;2023-07-08T03:36:09;12.60;99.90
6210;DHT22;3138;52.550;13.148;2023-07-08T03:38:39;12.80;99.90
6210;DHT22;3138;52.550;13.148;2023-07-08T03:41:06;13.10;99.90
6210;DHT22;3138;52.550;13.148;2023-07-08T03:43:33;13.40;99.90
6210;DHT22;3138;52.550;13.148;2023-07-08T03:45:59;14.80;99.90
6210;DHT22;3138;52.550;13.148;2023-07-08T03:48:26;15.80;99.90
6210;DHT22;3138;52.550;13.148;2023-07-08T03:50:53;16.60;99.90
6210;DHT22;3138;52.550;13.148;2023-07-08T03:53:20;16.90;99.90
6210;DHT22;3138;52.550;13.148;2023-07-08T03:55:48;17.60;99.90
6210;DHT22;3138;52.550;13.148;2023-07-08T03:58:15;18.10;99.90
6210;DHT22;3138;52.550;13.148;2023-07-08T04:00:42;18.30;99.90
6210;DHT22;3138;52.550;13.148;2023-07-08T04:03:10;18.40;99.90
6210;DHT22;3138;52.550;13.148;2023-07-08T04:05:38;18.60;99.90
6210;DHT22;3138;52.550;13.148;2023-07-08T04:08:05;19.10;99.90
6210;DHT22;3138;52.550;13.148;2023-07-08T04:10:31;18.90;99.90
6210;DHT22;3138;52.550;13.148;2023-07-08T04:13:00;18.80;99.90
6210;DHT22;3138;52.550;13.148;2023-07-08T04:15:26;18.70;99.90
6210;DHT22;3138;52.550;13.148;2023-07-08T04:17:54;18.10;99.90
6210;DHT22;3138;52.550;13.148;2023-07-08T04:20:23;17.50;99.90
6210;DHT22;3138;52.550;13.148;2023-07-08T04:22:50;17.20;99.90
6210;DHT22;3138;52.550;13.148;2023-07-08T04:25:18;17.20;99.90
6210;DHT22;3138;52.550;13.148;2023-07-08T04:27:45;17.20;99.90
6210;DHT22;3138;52.550;13.148;2023-07-08T04:30:21;17.40;99.90
6210;DHT22;3138;52.550;13.148;2023-07-08T04:32:50;17.50;99.90
6210;DHT22;3138;52.550;13.148;2023-07-08T04:35:17;17.60;99.90
6210;DHT22;3138;52.550;13.148;2023-07-08T04:37:44;17.80;99.90
6210;DHT22;3138;52.550;13.148;2023-07-08T04:40:17;17.90;99.90
6210;DHT22;3138;52.550;13.148;2023-07-08T04:42:45;18.10;99.90
6210;DHT22;3138;52.550;13.148;2023-07-08T04:45:16;18.10;99.90
6210;DHT22;3138;52.550;13.148;2023-07-08T04:47:45;18.20;99.90
6210;DHT22;3138;52.550;13.148;2023-07-08T04:50:17;18.40;99.90
6210;DHT22;3138;52.550;13.148;2023-07-08T04:52:44;18.50;99.90
6210;DHT22;3138;52.550;13.148;2023-07-08T04:55:12;18.60;99.90
6210;DHT22;3138;52.550;13.148;2023-07-08T04:57:39;18.80;99.90
6210;DHT22;3138;52.550;13.148;2023-07-08T05:00:09;18.90;99.90
6210;DHT22;3138;52.550;13.148;2023-07-08T05:02:39;19.10;99.80
6210;DHT22;3138;52.550;13.148;2023-07-08T05:05:09;19.20;99.60
6210;DHT22;3138;52.550;13.148;2023-07-08T05:07:36;19.20;99.10
6210;DHT22;3138;52.550;13.148;2023-07-08T05:10:03;19.40;97.70
6210;DHT22;3138;52.550;13.148;2023-07-08T05:12:30;19.60;99.90
6210;DHT22;3138;52.550;13.148;2023-07-08T05:14:57;19.60;96.80
6210;DHT22;3138;52.550;13.148;2023-07-08T05:17:24;19.90;95.80
6210;DHT22;3138;52.550;13.148;2023-07-08T05:19:53;19.70;93.90
6210;DHT22;3138;52.550;13.148;2023-07-08T05:22:19;19.80;95.40
6210;DHT22;3138;52.550;13.148;2023-07-08T05:24:51;19.90;93.70
6210;DHT22;3138;52.550;13.148;2023-07-08T05:27:20;20.10;92.70
6210;DHT22;3138;52.550;13.148;2023-07-08T05:29:47;20.40;93.90
6210;DHT22;3138;52.550;13.148;2023-07-08T05:32:14;20.50;91.90
6210;DHT22;3138;52.550;13.148;2023-07-08T05:34:41;20.30;86.70
6210;DHT22;3138;52.550;13.148;2023-07-08T05:37:09;20.60;85.40
6210;DHT22;3138;52.550;13.148;2023-07-08T05:39:36;20.50;82.50
6210;DHT22;3138;52.550;13.148;2023-07-08T05:42:03;20.30;81.30
6210;DHT22;3138;52.550;13.148;2023-07-08T05:44:30;20.20;84.70
6210;DHT22;3138;52.550;13.148;2023-07-08T05:47:02;20.60;87.60
6210;DHT22;3138;52.550;13.148;2023-07-08T05:49:29;21.20;86.10
6210;DHT22;3138;52.550;13.148;2023-07-08T05:51:56;21.00;81.50
6210;DHT22;3138;52.550;13.148;2023-07-08T05:54:24;21.10;76.40
6210;DHT22;3138;52.550;13.148;2023-07-08T05:56:51;21.30;78.30
6210;DHT22;3138;52.550;13.148;2023-07-08T05:59:17;21.60;79.70
6210;DHT22;3138;52.550;13.148;2023-07-08T06:01:44;21.80;79.80
6210;DHT22;3138;52.550;13.148;2023-07-08T06:04:11;22.00;72.50
6210;DHT22;3138;52.550;13.148;2023-07-08T06:06:38;21.90;66.00
6210;DHT22;3138;52.550;13.148;2023-07-08T06:09:05;22.10;67.60
6210;DHT22;3138;52.550;13.148;2023-07-08T06:11:33;22.40;68.40
6210;DHT22;3138;52.550;13.148;2023-07-08T06:14:01;22.40;67.60
6210;DHT22;3138;52.550;13.148;2023-07-08T06:16:28;21.90;66.30
6210;DHT22;3138;52.550;13.148;2023-07-08T06:18:56;22.30;66.00
6210;DHT22;3138;52.550;13.148;2023-07-08T06:21:23;22.70;67.60
6210;DHT22;3138;52.550;13.148;2023-07-08T06:23:50;23.00;68.40
6210;DHT22;3138;52.550;13.148;2023-07-08T06:26:17;23.20;70.70
6210;DHT22;3138;52.550;13.148;2023-07-08T06:28:45;23.10;60.40
6210;DHT22;3138;52.550;13.148;2023-07-08T06:31:12;23.40;67.00
6210;DHT22;3138;52.550;13.148;2023-07-08T06:33:39;23.50;59.60
6210;DHT22;3138;52.550;13.148;2023-07-08T06:36:06;23.30;56.00
6210;DHT22;3138;52.550;13.148;2023-07-08T06:38:33;23.40;58.30
6210;DHT22;3138;52.550;13.148;2023-07-08T06:41:00;23.50;57.00
6210;DHT22;3138;52.550;13.148;2023-07-08T06:43:30;23.70;55.40
6210;DHT22;3138;52.550;13.148;2023-07-08T06:46:03;23.80;53.50
6210;DHT22;3138;52.550;13.148;2023-07-08T06:48:30;24.00;53.00
6210;DHT22;3138;52.550;13.148;2023-07-08T06:50:57;24.00;50.70
6210;DHT22;3138;52.550;13.148;2023-07-08T06:53:24;24.40;48.70
6210;DHT22;3138;52.550;13.148;2023-07-08T06:55:51;24.50;48.70
6210;DHT22;3138;52.550;13.148;2023-07-08T06:58:17;24.80;51.10
6210;DHT22;3138;52.550;13.148;2023-07-08T07:00:44;24.90;45.20
6210;DHT22;3138;52.550;13.148;2023-07-08T07:03:13;25.10;49.30
6210;DHT22;3138;52.550;13.148;2023-07-08T07:05:40;25.30;44.20
6210;DHT22;3138;52.550;13.148;2023-07-08T07:08:07;25.30;39.40
6210;DHT22;3138;52.550;13.148;2023-07-08T07:10:34;24.90;39.80
6210;DHT22;3138;52.550;13.148;2023-07-08T07:13:01;25.40;42.90
6210;DHT22;3138;52.550;13.148;2023-07-08T07:15:27;25.60;39.40
6210;DHT22;3138;52.550;13.148;2023-07-08T07:17:56;26.10;41.80
6210;DHT22;3138;52.550;13.148;2023-07-08T07:20:24;25.90;38.40
6210;DHT22;3138;52.550;13.148;2023-07-08T07:22:51;25.90;41.10
6210;DHT22;3138;52.550;13.148;2023-07-08T07:25:18;26.10;34.70
6210;DHT22;3138;52.550;13.148;2023-07-08T07:27:48;25.80;35.30
6210;DHT22;3138;52.550;13.148;2023-07-08T07:30:15;25.90;34.50
6210;DHT22;3138;52.550;13.148;2023-07-08T07:32:42;26.20;30.20
6210;DHT22;3138;52.550;13.148;2023-07-08T07:35:10;26.20;33.80
6210;DHT22;3138;52.550;13.148;2023-07-08T07:37:40;26.30;30.00
6210;DHT22;3138;52.550;13.148;2023-07-08T07:40:09;26.60;32.10
6210;DHT22;3138;52.550;13.148;2023-07-08T07:42:38;26.60;29.60
6210;DHT22;3138;52.550;13.148;2023-07-08T07:45:06;26.30;28.40
6210;DHT22;3138;52.550;13.148;2023-07-08T07:47:33;26.50;31.90
6210;DHT22;3138;52.550;13.148;2023-07-08T07:50:01;26.60;29.20
6210;DHT22;3138;52.550;13.148;2023-07-08T07:52:28;26.80;27.80
6210;DHT22;3138;52.550;13.148;2023-07-08T07:54:56;26.80;26.30
6210;DHT22;3138;52.550;13.148;2023-07-08T07:57:24;26.70;25.90
6210;DHT22;3138;52.550;13.148;2023-07-08T07:59:51;26.70;25.70
6210;DHT22;3138;52.550;13.148;2023-07-08T08:02:18;26.80;26.60
6210;DHT22;3138;52.550;13.148;2023-07-08T08:04:45;26.90;26.60
6210;DHT22;3138;52.550;13.148;2023-07-08T08:07:13;27.30;27.90
6210;DHT22;3138;52.550;13.148;2023-07-08T08:09:40;27.20;24.70
6210;DHT22;3138;52.550;13.148;2023-07-08T08:12:10;27.30;21.30
6210;DHT22;3138;52.550;13.148;2023-07-08T08:14:37;27.30;23.60
6210;DHT22;3138;52.550;13.148;2023-07-08T08:17:07;27.70;22.20
6210;DHT22;3138;52.550;13.148;2023-07-08T08:19:34;27.70;20.80
6210;DHT22;3138;52.550;13.148;2023-07-08T08:22:01;28.20;26.00
6210;DHT22;3138;52.550;13.148;2023-07-08T08:24:28;28.30;25.00
6210;DHT22;3138;52.550;13.148;2023-07-08T08:26:55;28.30;24.80
6210;DHT22;3138;52.550;13.148;2023-07-08T08:29:23;28.50;21.30
6210;DHT22;3138;52.550;13.148;2023-07-08T08:31:50;28.80;25.70
6210;DHT22;3138;52.550;13.148;2023-07-08T08:34:17;28.80;23.70
6210;DHT22;3138;52.550;13.148;2023-07-08T08:36:43;28.80;17.70
6210;DHT22;3138;52.550;13.148;2023-07-08T08:39:10;28.20;17.20
6210;DHT22;3138;52.550;13.148;2023-07-08T08:41:41;28.40;15.10
6210;DHT22;3138;52.550;13.148;2023-07-08T08:44:14;28.60;99.90
6210;DHT22;3138;52.550;13.148;2023-07-08T08:46:48;28.70;99.90
6210;DHT22;3138;52.550;13.148;2023-07-08T08:49:22;28.70;99.90
6210;DHT22;3138;52.550;13.148;2023-07-08T08:51:53;28.50;39.70
6210;DHT22;3138;52.550;13.148;2023-07-08T08:54:23;28.40;1.00
6210;DHT22;3138;52.550;13.148;2023-07-08T08:56:57;28.70;4.20
6210;DHT22;3138;52.550;13.148;2023-07-08T08:59:31;29.20;8.70
6210;DHT22;3138;52.550;13.148;2023-07-08T09:02:19;29.30;1.00
6210;DHT22;3138;52.550;13.148;2023-07-08T09:04:50;29.00;1.00
6210;DHT22;3138;52.550;13.148;2023-07-08T09:07:19;28.90;1.00
6210;DHT22;3138;52.550;13.148;2023-07-08T09:09:55;28.70;1.00
6210;DHT22;3138;52.550;13.148;2023-07-08T09:12:27;28.80;1.00
6210;DHT22;3138;52.550;13.148;2023-07-08T09:14:56;28.80;1.00
6210;DHT22;3138;52.550;13.148;2023-07-08T09:17:28;28.90;1.00
6210;DHT22;3138;52.550;13.148;2023-07-08T09:20:01;29.10;1.00
6210;DHT22;3138;52.550;13.148;2023-07-08T09:22:38;29.40;1.00
6210;DHT22;3138;52.550;13.148;2023-07-08T09:25:17;29.20;1.00
6210;DHT22;3138;52.550;13.148;2023-07-08T09:27:47;29.80;1.00
6210;DHT22;3138;52.550;13.148;2023-07-08T09:30:16;30.00;1.00
6210;DHT22;3138;52.550;13.148;2023-07-08T09:32:46;30.20;1.00
6210;DHT22;3138;52.550;13.148;2023-07-08T09:35:17;29.90;1.00
6210;DHT22;3138;52.550;13.148;2023-07-08T09:37:46;30.10;1.00
6210;DHT22;3138;52.550;13.148;2023-07-08T09:40:16;29.60;1.00
6210;DHT22;3138;52.550;13.148;2023-07-08T09:42:46;29.70;1.00
6210;DHT22;3138;52.550;13.148;2023-07-08T09:45:17;29.50;1.00
6210;DHT22;3138;52.550;13.148;2023-07-08T09:47:46;29.70;1.00
6210;DHT22;3138;52.550;13.148;2023-07-08T09:50:17;29.90;1.00
6210;DHT22;3138;52.550;13.148;2023-07-08T09:52:46;30.30;1.00
6210;DHT22;3138;52.550;13.148;2023-07-08T09:55:14;30.30;1.00
6210;DHT22;3138;52.550;13.148;2023-07-08T09:57:43;30.10;1.00
6210;DHT22;3138;52.550;13.148;2023-07-08T10:00:13;29.60;1.00
6210;DHT22;3138;52.550;13.148;2023-07-08T10:02:43;29.80;1.00
6210;DHT22;3138;52.550;13.148;2023-07-08T10:05:16;30.10;1.00
6210;DHT22;3138;52.550;13.148;2023-07-08T10:07:45;30.40;1.00
6210;DHT22;3138;52.550;13.148;2023-07-08T10:10:15;30.30;1.00
6210;DHT22;3138;52.550;13.148;2023-07-08T10:12:51;30.20;1.00
6210;DHT22;3138;52.550;13.148;2023-07-08T10:15:22;29.90;1.00
6210;DHT22;3138;52.550;13.148;2023-07-08T10:17:51;30.20;1.00
6210;DHT22;3138;52.550;13.148;2023-07-08T10:20:20;30.50;1.00
6210;DHT22;3138;52.550;13.148;2023-07-08T10:22:57;30.20;1.00
6210;DHT22;3138;52.550;13.148;2023-07-08T10:25:29;30.30;1.00
6210;DHT22;3138;52.550;13.148;2023-07-08T10:28:06;29.90;1.00
6210;DHT22;3138;52.550;13.148;2023-07-08T10:30:48;30.20;1.00
6210;DHT22;3138;52.550;13.148;2023-07-08T10:33:34;30.10;1.00
6210;DHT22;3138;52.550;13.148;2023-07-08T10:36:22;30.60;1.00
6210;DHT22;3138;52.550;13.148;2023-07-08T10:39:04;30.90;1.00
6210;DHT22;3138;52.550;13.148;2023-07-08T10:41:43;31.10;1.00
6210;DHT22;3138;52.550;13.148;2023-07-08T10:44:20;30.70;1.00
6210;DHT22;3138;52.550;13.148;2023-07-08T10:46:57;30.80;1.00
6210;DHT22;3138;52.550;13.148;2023-07-08T10:49:44;31.20;1.00
6210;DHT22;3138;52.550;13.148;2023-07-08T10:52:28;31.20;1.00
6210;DHT22;3138;52.550;13.148;2023-07-08T10:55:08;31.10;1.00
6210;DHT22;3138;52.550;13.148;2023-07-08T10:57:53;31.00;1.00
6210;DHT22;3138;52.550;13.148;2023-07-08T11:00:28;31.20;1.00
6210;DHT22;3138;52.550;13.148;2023-07-08T11:03:25;30.90;1.00
6210;DHT22;3138;52.550;13.148;2023-07-08T11:05:59;30.80;1.00
6210;DHT22;3138;52.550;13.148;2023-07-08T11:08:32;30.40;1.00
6210;DHT22;3138;52.550;13.148;2023-07-08T11:11:06;30.60;1.00
6210;DHT22;3138;52.550;13.148;2023-07-08T11:13:38;30.90;1.00
6210;DHT22;3138;52.550;13.148;2023-07-08T11:16:14;31.40;1.00
6210;DHT22;3138;52.550;13.148;2023-07-08T11:18:49;31.40;1.00
6210;DHT22;3138;52.550;13.148;2023-07-08T11:21:22;31.00;1.00
6210;DHT22;3138;52.550;13.148;2023-07-08T11:23:56;30.60;1.00
6210;DHT22;3138;52.550;13.148;2023-07-08T11:26:30;30.40;1.00
6210;DHT22;3138;52.550;13.148;2023-07-08T11:29:00;30.80;1.00
6210;DHT22;3138;52.550;13.148;2023-07-08T11:31:31;30.90;1.00
6210;DHT22;3138;52.550;13.148;2023-07-08T11:33:59;31.20;1.00
6210;DHT22;3138;52.550;13.148;2023-07-08T11:36:28;31.50;1.00
6210;DHT22;3138;52.550;13.148;2023-07-08T11:38:57;31.20;1.00
6210;DHT22;3138;52.550;13.148;2023-07-08T11:41:25;31.20;1.00
6210;DHT22;3138;52.550;13.148;2023-07-08T11:43:57;31.60;1.00
6210;DHT22;3138;52.550;13.148;2023-07-08T11:46:26;32.00;1.00
6210;DHT22;3138;52.550;13.148;2023-07-08T11:48:55;32.00;1.00
6210;DHT22;3138;52.550;13.148;2023-07-08T11:51:26;31.70;1.00
6210;DHT22;3138;52.550;13.148;2023-07-08T11:54:01;31.60;1.00
6210;DHT22;3138;52.550;13.148;2023-07-08T11:56:48;31.20;1.00
6210;DHT22;3138;52.550;13.148;2023-07-08T11:59:17;31.50;1.00
6210;DHT22;3138;52.550;13.148;2023-07-08T12:01:52;31.40;1.00
6210;DHT22;3138;52.550;13.148;2023-07-08T12:04:28;31.20;1.00
6210;DHT22;3138;52.550;13.148;2023-07-08T12:07:06;31.20;1.00
6210;DHT22;3138;52.550;13.148;2023-07-08T12:09:38;31.20;99.90
6210;DHT22;3138;52.550;13.148;2023-07-08T12:12:11;31.20;99.90
6210;DHT22;3138;52.550;13.148;2023-07-08T12:14:41;31.10;99.90
6210;DHT22;3138;52.550;13.148;2023-07-08T12:17:11;31.40;1.00
6210;DHT22;3138;52.550;13.148;2023-07-08T12:19:40;31.60;1.00
6210;DHT22;3138;52.550;13.148;2023-07-08T12:22:10;31.60;1.00
6210;DHT22;3138;52.550;13.148;2023-07-08T12:24:39;31.90;1.00
6210;DHT22;3138;52.550;13.148;2023-07-08T12:27:09;32.20;1.00
6210;DHT22;3138;52.550;13.148;2023-07-08T12:29:36;31.80;99.90
6210;DHT22;3138;52.550;13.148;2023-07-08T12:32:04;32.00;1.00
6210;DHT22;3138;52.550;13.148;2023-07-08T12:34:32;31.50;1.00
6210;DHT22;3138;52.550;13.148;2023-07-08T12:36:59;31.80;99.90
6210;DHT22;3138;52.550;13.148;2023-07-08T12:39:26;32.00;99.90
6210;DHT22;3138;52.550;13.148;2023-07-08T12:41:56;31.80;99.90
6210;DHT22;3138;52.550;13.148;2023-07-08T12:44:26;31.80;99.90
6210;DHT22;3138;52.550;13.148;2023-07-08T12:46:54;31.90;99.90
6210;DHT22;3138;52.550;13.148;2023-07-08T12:49:21;31.60;99.90
6210;DHT22;3138;52.550;13.148;2023-07-08T12:51:52;31.30;99.90
6210;DHT22;3138;52.550;13.148;2023-07-08T12:54:21;31.20;99.90
6210;DHT22;3138;52.550;13.148;2023-07-08T12:56:48;31.30;99.90
6210;DHT22;3138;52.550;13.148;2023-07-08T12:59:19;31.60;99.90
6210;DHT22;3138;52.550;13.148;2023-07-08T13:01:49;31.40;99.90
6210;DHT22;3138;52.550;13.148;2023-07-08T13:04:17;31.90;99.90
6210;DHT22;3138;52.550;13.148;2023-07-08T13:06:51;32.10;99.90
6210;DHT22;3138;52.550;13.148;2023-07-08T13:09:37;31.90;99.90
6210;DHT22;3138;52.550;13.148;2023-07-08T13:12:13;31.70;99.90
6210;DHT22;3138;52.550;13.148;2023-07-08T13:14:43;31.90;99.90
6210;DHT22;3138;52.550;13.148;2023-07-08T13:17:13;32.10;99.90
6210;DHT22;3138;52.550;13.148;2023-07-08T13:19:43;32.00;99.90
6210;DHT22;3138;52.550;13.148;2023-07-08T13:22:16;31.60;99.90
6210;DHT22;3138;52.550;13.148;2023-07-08T13:24:44;31.60;99.90
6210;DHT22;3138;52.550;13.148;2023-07-08T13:27:19;31.60;99.90
6210;DHT22;3138;52.550;13.148;2023-07-08T13:29:50;31.40;99.90
6210;DHT22;3138;52.550;13.148;2023-07-08T13:32:17;31.50;99.90
6210;DHT22;3138;52.550;13.148;2023-07-08T13:34:44;31.60;99.90
6210;DHT22;3138;52.550;13.148;2023-07-08T13:37:12;32.00;99.90
6210;DHT22;3138;52.550;13.148;2023-07-08T13:39:43;32.00;99.90
6210;DHT22;3138;52.550;13.148;2023-07-08T13:42:11;32.00;99.90
6210;DHT22;3138;52.550;13.148;2023-07-08T13:44:43;32.10;99.90
6210;DHT22;3138;52.550;13.148;2023-07-08T13:47:23;31.90;99.90
6210;DHT22;3138;52.550;13.148;2023-07-08T13:49:58;32.20;99.90
6210;DHT22;3138;52.550;13.148;2023-07-08T13:52:27;32.20;99.90
6210;DHT22;3138;52.550;13.148;2023-07-08T13:54:59;32.10;99.90
6210;DHT22;3138;52.550;13.148;2023-07-08T13:57:32;32.10;99.90
6210;DHT22;3138;52.550;13.148;2023-07-08T14:00:01;31.70;99.90
6210;DHT22;3138;52.550;13.148;2023-07-08T14:02:33;31.70;99.90
6210;DHT22;3138;52.550;13.148;2023-07-08T14:05:01;31.70;99.90
6210;DHT22;3138;52.550;13.148;2023-07-08T14:07:33;31.60;99.90
6210;DHT22;3138;52.550;13.148;2023-07-08T14:10:00;31.70;99.90
6210;DHT22;3138;52.550;13.148;2023-07-08T14:12:27;31.70;99.90
6210;DHT22;3138;52.550;13.148;2023-07-08T14:14:54;31.70;99.90
6210;DHT22;3138;52.550;13.148;2023-07-08T14:17:23;31.60;99.90
6210;DHT22;3138;52.550;13.148;2023-07-08T14:19:52;31.50;99.90
6210;DHT22;3138;52.550;13.148;2023-07-08T14:22:24;31.40;99.90
6210;DHT22;3138;52.550;13.148;2023-07-08T14:24:52;31.10;99.90
6210;DHT22;3138;52.550;13.148;2023-07-08T14:27:20;31.20;99.90
6210;DHT22;3138;52.550;13.148;2023-07-08T14:29:49;31.30;99.90
6210;DHT22;3138;52.550;13.148;2023-07-08T14:32:20;31.50;99.90
6210;DHT22;3138;52.550;13.148;2023-07-08T14:34:50;31.60;99.90
6210;DHT22;3138;52.550;13.148;2023-07-08T14:37:20;31.20;99.90
6210;DHT22;3138;52.550;13.148;2023-07-08T14:39:47;31.20;99.90
6210;DHT22;3138;52.550;13.148;2023-07-08T14:42:18;31.20;99.90
6210;DHT22;3138;52.550;13.148;2023-07-08T14:44:47;31.30;99.90
6210;DHT22;3138;52.550;13.148;2023-07-08T14:47:17;31.50;99.90
6210;DHT22;3138;52.550;13.148;2023-07-08T14:49:44;31.40;99.90
6210;DHT22;3138;52.550;13.148;2023-07-08T14:52:11;31.40;99.90
6210;DHT22;3138;52.550;13.148;2023-07-08T14:54:39;31.30;99.90
6210;DHT22;3138;52.550;13.148;2023-07-08T14:57:07;31.10;99.90
6210;DHT22;3138;52.550;13.148;2023-07-08T14:59:35;31.20;99.90
6210;DHT22;3138;52.550;13.148;2023-07-08T15:02:16;31.30;99.90
6210;DHT22;3138;52.550;13.148;2023-07-08T15:04:44;31.10;99.90
6210;DHT22;3138;52.550;13.148;2023-07-08T15:07:11;31.20;99.90
6210;DHT22;3138;52.550;13.148;2023-07-08T15:09:39;31.30;99.90
6210;DHT22;3138;52.550;13.148;2023-07-08T15:12:09;31.10;99.90
6210;DHT22;3138;52.550;13.148;2023-07-08T15:14:36;31.00;99.90
6210;DHT22;3138;52.550;13.148;2023-07-08T15:17:08;30.90;99.90
6210;DHT22;3138;52.550;13.148;2023-07-08T15:19:35;31.00;99.90
6210;DHT22;3138;52.550;13.148;2023-07-08T15:22:02;31.00;99.90
6210;DHT22;3138;52.550;13.148;2023-07-08T15:24:29;30.90;99.90
6210;DHT22;3138;52.550;13.148;2023-07-08T15:26:57;31.00;99.90
6210;DHT22;3138;52.550;13.148;2023-07-08T15:29:24;30.90;99.90
6210;DHT22;3138;52.550;13.148;2023-07-08T15:31:52;30.60;99.90
6210;DHT22;3138;52.550;13.148;2023-07-08T15:34:20;30.80;99.90
6210;DHT22;3138;52.550;13.148;2023-07-08T15:36:48;30.80;99.90
6210;DHT22;3138;52.550;13.148;2023-07-08T15:39:15;30.90;99.90
6210;DHT22;3138;52.550;13.148;2023-07-08T15:41:43;30.70;99.90
6210;DHT22;3138;52.550;13.148;2023-07-08T15:44:12;30.80;99.90
6210;DHT22;3138;52.550;13.148;2023-07-08T15:46:41;30.70;99.90
6210;DHT22;3138;52.550;13.148;2023-07-08T15:49:13;30.70;99.90
6210;DHT22;3138;52.550;13.148;2023-07-08T15:51:41;30.90;99.90
6210;DHT22;3138;52.550;13.148;2023-07-08T15:54:09;30.80;99.90
6210;DHT22;3138;52.550;13.148;2023-07-08T15:56:36;30.70;99.90
6210;DHT22;3138;52.550;13.148;2023-07-08T15:59:03;30.70;99.90
6210;DHT22;3138;52.550;13.148;2023-07-08T16:01:31;30.60;99.90
6210;DHT22;3138;52.550;13.148;2023-07-08T16:03:58;30.60;99.90
6210;DHT22;3138;52.550;13.148;2023-07-08T16:06:26;30.40;99.90